EW8841 Weather Reports


time (UTC)temp
F
wind
direction
speed
knots
gust
knots
rain 1hr
in
rain 24hr
in
rain mn
in
humidity
%
barometer
mb
20260503211518 72 0.0 0.0 0.00 0.00 0.00 48 1010.8
20260503210517 70 0.0 0.0 0.00 0.00 0.00 50 1010.8
20260503205517 69 0.0 0.0 0.00 0.00 0.00 49 1010.8
20260503204559 71 0.0 0.0 0.00 0.00 0.00 49 1010.8
20260503203517 73 0.0 0.0 0.00 0.00 0.00 47 1010.9
20260503202516 71 0.0 0.0 0.00 0.00 0.00 49 1011.0
20260503201517 70 0.0 0.0 0.00 0.00 0.00 50 1011.0
20260503200518 70 0.0 0.0 0.00 0.00 0.00 52 1010.9
20260503195537 70 0.0 0.0 0.00 0.00 0.00 50 1011.3
20260503194517 70 0.0 0.0 0.00 0.00 0.00 50 1011.3
20260503193518 70 0.0 0.0 0.00 0.00 0.00 51 1011.3
20260503192517 68 0.0 0.0 0.00 0.00 0.00 54 1011.4
20260503191517 68 0.0 0.0 0.00 0.00 0.00 50 1011.4
20260503190518 68 0.0 0.0 0.00 0.00 0.00 52 1011.5
20260503185517 68 0.0 0.0 0.00 0.00 0.00 53 1011.7
20260503184518 68 0.0 0.0 0.00 0.00 0.00 55 1011.7
20260503183517 67 0.0 0.0 0.00 0.00 0.00 58 1011.8
20260503182517 66 0.0 0.0 0.00 0.00 0.00 59 1011.9
20260503181538 65 0.0 0.0 0.00 0.00 0.00 61 1011.9
20260503180517 65 0.0 0.0 0.00 0.00 0.00 63 1011.9
20260503175517 64 0.0 0.0 0.00 0.00 0.00 63 1012.0
20260503174516 64 0.0 0.0 0.00 0.00 0.00 67 1012.0
20260503173517 63 0.0 0.0 0.00 0.00 0.00 66 1012.0
20260503172538 63 0.0 0.0 0.00 0.00 0.00 68 1012.0
20260503171518 62 0.0 0.0 0.00 0.00 0.00 70 1012.0
20260503170517 62 0.0 0.0 0.00 0.00 0.00 71 1011.9
20260503150516 58 0.0 0.0 0.00 0.00 0.00 78 1011.2
20260503130517 56 0.0 0.0 0.00 0.00 0.00 78 1010.2
20260503110522 57 0.0 0.0 0.00 0.00 0.00 78 1009.9
20260503081534 58 0.0 0.0 0.00 0.00 0.00 80 1010.2
20260503080518 58 0.0 0.0 0.00 0.00 0.00 81 1010.5
20260503072518 58 0.0 0.0 0.00 0.00 0.00 82 1010.2
20260503071518 58 0.0 0.0 0.00 0.00 0.00 82 1010.2
20260503070547 58 0.0 0.0 0.00 0.00 0.00 82 1010.2
20260503054515 58 0.0 0.0 0.00 0.00 0.00 80 1009.7
20260503053515 58 0.0 0.0 0.00 0.00 0.00 80 1009.7
20260503052517 58 0.0 0.0 0.00 0.00 0.00 79 1009.6
20260503051516 58 0.0 0.0 0.00 0.00 0.00 79 1009.6
20260503050537 58 0.0 0.0 0.00 0.00 0.00 79 1009.6
20260503045536 58 0.0 0.0 0.00 0.00 0.00 79 1009.6
20260503044515 58 0.0 0.0 0.00 0.00 0.00 79 1009.6
20260503043518 58 0.0 0.0 0.00 0.00 0.00 78 1009.4
20260503042518 58 0.0 0.0 0.00 0.00 0.00 78 1009.6
20260503041538 58 0.0 0.0 0.00 0.00 0.00 79 1009.6
20260503040518 58 0.0 0.0 0.00 0.00 0.00 79 1009.2
20260503035537 58 0.0 0.0 0.00 0.00 0.00 79 1009.2
20260503034517 58 0.0 0.0 0.00 0.00 0.00 79 1009.2
20260503033516 58 0.0 0.0 0.00 0.00 0.00 79 1009.2
20260503032517 59 0.0 0.0 0.00 0.00 0.00 78 1009.2
20260503031518 59 0.0 0.0 0.00 0.00 0.00 77 1009.2
20260503030518 59 0.0 0.0 0.00 0.00 0.00 77 1008.8
20260503025518 59 0.0 0.0 0.00 0.00 0.00 77 1008.7
20260503024517 60 0.0 0.0 0.00 0.00 0.00 76 1008.7
20260503023517 60 0.0 0.0 0.00 0.00 0.00 75 1008.6
20260503022517 60 0.0 0.0 0.00 0.00 0.00 74 1008.6
20260503021517 61 0.0 0.0 0.00 0.00 0.00 73 1008.6
20260503020518 62 0.0 0.0 0.00 0.00 0.00 72 1008.6
20260503015517 63 0.0 0.0 0.00 0.00 0.00 70 1008.6
20260503014517 64 0.0 0.0 0.00 0.00 0.00 69 1008.7
20260503013518 65 0.0 0.0 0.00 0.00 0.00 67 1008.6
20260503012537 66 0.0 0.0 0.00 0.00 0.00 65 1008.7
20260503011518 67 0.0 0.0 0.00 0.00 0.00 64 1008.7
20260503010518 68 0.0 0.0 0.00 0.00 0.00 62 1008.7
20260503005517 69 0.0 0.0 0.00 0.00 0.00 60 1008.7
20260503004537 70 0.0 0.0 0.00 0.00 0.00 59 1008.7
20260503003538 71 0.0 0.0 0.00 0.00 0.00 58 1008.7
20260503002517 71 0.0 0.0 0.00 0.00 0.00 59 1008.7
20260503001518 71 0.0 0.0 0.00 0.00 0.00 58 1008.7
20260503000517 72 0.0 0.0 0.00 0.00 0.00 58 1008.7
20260502235517 72 0.0 0.0 0.00 0.00 0.00 58 1008.7
20260502234517 72 0.0 0.0 0.00 0.00 0.00 58 1008.6
20260502233517 72 0.0 0.0 0.00 0.00 0.00 58 1008.8
20260502232517 72 0.0 0.0 0.00 0.00 0.00 57 1009.1
20260502231518 73 0.0 0.0 0.00 0.00 0.00 57 1009.2
20260502230517 72 0.0 0.0 0.00 0.00 0.00 58 1009.2
20260502225517 72 0.0 0.0 0.00 0.00 0.00 58 1009.3
20260502224517 71 0.0 0.0 0.00 0.00 0.00 59 1009.2
20260502223517 72 0.0 0.0 0.00 0.00 0.00 58 1009.7
20260502222537 72 0.0 0.0 0.00 0.00 0.00 58 1010.1
20260502221518 71 0.0 0.0 0.00 0.00 0.00 61 1010.1
20260502220517 71 0.0 0.0 0.00 0.00 0.00 62 1010.2
20260502215516 69 0.0 0.0 0.00 0.00 0.00 64 1010.6
20260502214538 70 0.0 0.0 0.00 0.00 0.00 64 1010.6
20260502213517 68 0.0 0.0 0.00 0.00 0.00 67 1010.9
20260502212537 68 0.0 0.0 0.00 0.00 0.00 67 1011.1